Weather observations for the past three days for
Mackinac Island Airport
Metric (Imperial)
Date Time (edt) Wind (kph) Vis. (km) Weather Sky Cond. Temperature (ºC) Relative Humidity Wind Chill (°C) Heat Index (°C) Pressure Precipitation (cm)
Air Dwpt 6 hour altimeter (cm) sea level (mb) 1 hr 3 hr 6 hr
Max. Min.
04 03:15 SW 15 16.09 Fair CLR 5 4 93% 2 75.08 0.0
04 02:55 SW 15 16.09 Fair CLR 7 4 81% 5 75.08 0.0
04 02:35 SW 20 G 31 16.09 Fair CLR 6 4 87% 3 75.08 0.0
04 02:16 SW 22 G 33 16.09 Fair CLR 6 4 87% 2 75.13 0.0
04 01:55 SW 19 16.09 Fair CLR 6 4 6.8 2.1 87% 3 75.16 0.0
04 01:35 W 19 16.09 Fair CLR 5 3 87% 2 75.16 0.0
04 01:15 SW 15 16.09 Fair CLR 5 4 93% 2 75.16 0.0
04 00:55 SW 17 11.27 Fog/Mist CLR 3 3 100% -1 75.16 0.0
04 00:35 SW 15 3.22 Fog/Mist CLR 2 2 100% -2 75.13 0.0
04 00:15 SW 13 6.44 Fog/Mist CLR 3 3 100% 0 75.16 0.0
03 23:56 SW 9 12.87 Fair CLR 4 4 100% 2 75.16 0.0
03 23:35 SW 11 4.02 Fog/Mist CLR 4 4 100% 2 75.18 0.0
03 23:15 W 9 16.09 Partly Cloudy FEW060 SCT070 5 4 93% 3 75.21 0.0
03 22:55 W 13 16.09 Overcast OVC060 5 4 93% 2 75.21 0.0
03 22:35 SW 9 16.09 Overcast OVC060 6 5 93% 4 75.23 0.0
03 22:15 SW 13 16.09 Overcast BKN060 BKN070 OVC090 6 5 93% 4 75.23 0.0
03 21:55 SW 15 16.09 Overcast BKN060 BKN080 OVC100 6 5 93% 3 75.23 0.0
03 21:36 SW 9 6.44 Fog/Mist SCT060 OVC100 5 5 100% 3 75.23 0.0
03 21:15 S 6 8.05 Fog/Mist SCT060 SCT080 OVC100 5 5 100% 75.21 0.0
03 20:55 S 11 14.48 Overcast FEW050 SCT080 OVC100 6 5 93% 4 75.21 0.0
03 20:35 S 11 16.09 Overcast SCT050 SCT055 OVC100 6 5 93% 4 75.21 0.0
03 20:15 S 4 16.09 Overcast BKN055 OVC090 7 6 93% 75.21 0.0
03 19:55 S 7 16.09 Overcast SCT055 OVC090 7 6 11.1 3.3 93% 6 75.18 0.0
03 19:35 S 15 16.09 Overcast OVC055 7 6 93% 5 75.18 0.0
03 19:16 SW 13 16.09 Light Rain SCT044 BKN055 BKN085 7 6 93% 5 75.21 0.0
03 18:55 SW 11 6.44 Unknown Precip Fog/Mist BKN038 OVC044 7 6 93% 5 75.23 0.0 0.36
03 18:35 Vrbl 9 2.41 Rain Fog/Mist OVC042 3 3 100% 1 75.29 0.0
03 18:15 NE 15 12.87 Light Rain FEW039 BKN048 OVC060 5 2 81% 2 75.29 0.0
03 17:55 E 13 16.09 Overcast FEW049 BKN060 OVC075 6 2 76% 4 75.18 0.0
03 17:35 E 11 16.09 Light Rain SCT070 BKN085 7 3 76% 5 75.16 0.0
03 17:15 E 13 16.09 Partly Cloudy SCT080 8 3 71% 6 75.18 0.0
03 16:56 E 11 16.09 Fair CLR 8 3 71% 6 75.21 0.0
03 16:35 E 11 16.09 A Few Clouds FEW110 10 3 62% 9 75.21 0.0
03 16:15 E 11 16.09 Partly Cloudy SCT110 9 3 66% 8 75.23 0.0
03 15:55 E 7 16.09 Partly Cloudy SCT060 9 3 66% 8 75.26 0.0
03 15:35 Vrbl 11 16.09 Mostly Cloudy BKN060 10 4 67% 9 75.29 0.0
03 15:15 Vrbl 7 16.09 Overcast FEW042 OVC060 10 3 62% 9 75.31 0.0
03 14:55 Vrbl 7 16.09 Overcast SCT042 BKN060 OVC070 9 3 66% 8 75.34 0.0
03 14:36 Vrbl 9 16.09 Mostly Cloudy BKN060 BKN100 8 3 71% 7 75.36 0.0
03 14:15 W 17 16.09 A Few Clouds FEW100 8 3 71% 6 75.36 0.0
03 13:55 SW 13 16.09 Partly Cloudy SCT110 7 4 8.2 2.3 81% 5 75.39 0.0
03 13:35 Vrbl 7 16.09 Partly Cloudy SCT110 8 4 76% 7 75.41 0.0
03 13:15 Vrbl 9 16.09 A Few Clouds FEW049 7 4 81% 5 75.41 0.0
03 12:55 S 7 16.09 Partly Cloudy SCT049 SCT060 6 3 81% 5 75.44 0.0
03 12:35 SE 9 16.09 Overcast BKN049 OVC060 5 3 87% 3 75.44 0.0
03 12:16 Vrbl 7 16.09 Light Rain SCT042 BKN048 OVC090 5 2 81% 4 75.44 0.0
03 11:55 Vrbl 7 16.09 Overcast BKN042 OVC049 4 2 87% 2 75.46 0.0
03 11:35 Vrbl 9 16.09 Light Rain OVC046 3 2 93% 1 75.46 0.0
03 11:15 SE 9 16.09 Light Drizzle OVC042 3 2 93% 1 75.49 0.0
03 10:55 SE 15 16.09 Light Rain OVC042 3 1 87% -0 75.49 0.0 0.13
03 10:35 SE 11 9.66 Light Rain Fog/Mist FEW023 BKN038 OVC046 2 1 93% -1 75.49 0.0
03 10:15 SE 13 6.44 Light Rain Haze SCT028 OVC036 2 0 87% -1 75.51 0.0
03 09:56 E 9 16.09 Light Rain BKN033 OVC039 3 0 81% 1 75.51 0.0
03 09:35 E 13 14.48 Light Rain OVC040 3 0 81% 0 75.54 0.0
03 09:15 SE 11 14.48 Light Rain OVC044 4 -2 65% 2 75.57 0.0
03 08:55 NE 7 16.09 Light Rain OVC050 4 -2 65% 2 75.54 0.0
03 08:35 SE 9 16.09 Light Drizzle OVC050 4 -4 56% 2 75.57 0.0
03 08:15 S 9 12.87 Light Rain FEW044 BKN050 OVC065 4 -3 61% 2 75.59 0.0
03 07:55 S 11 16.09 Overcast SCT070 OVC080 4 -4 4.1 1 56% 2 75.57 0.0
03 07:36 S 11 16.09 Overcast OVC080 4 -4 56% 2 75.57 0.0
03 07:15 S 13 16.09 Overcast OVC100 3 -3 65% 0 75.59 0.0
03 06:55 S 15 16.09 Overcast OVC090 3 -4 60% -0 75.57 0.0
03 06:35 S 15 16.09 Overcast OVC090 3 -3 65% -0 75.59 0.0
03 06:15 S 17 16.09 Overcast OVC090 3 -3 65% -1 75.59 0.0
03 05:55 S 17 16.09 Mostly Cloudy BKN100 3 -4 60% -1 75.62 0.0
03 05:35 S 17 16.09 A Few Clouds FEW120 3 -4 60% -1 75.64 0.0
03 05:16 S 15 16.09 Partly Cloudy SCT120 3 -4 60% -0 75.67 0.0
03 04:55 S 15 16.09 Mostly Cloudy BKN120 3 -5 56% -0 75.67 0.0
03 04:35 S 17 16.09 A Few Clouds FEW110 2 -4 65% -2 75.69 0.0
03 04:15 S 15 16.09 Fair CLR 2 -3 70% -2 75.72 0.0
03 03:55 S 15 16.09 A Few Clouds FEW120 2 -4 65% -2 75.74 0.0
03 03:35 S 13 16.09 Fair CLR 2 -2 75% -1 75.77 0.0
03 03:15 SW 13 16.09 Fair CLR 2 -1 81% -1 75.77 0.0
03 02:56 SW 15 16.09 Fair CLR 2 -1 81% -2 75.79 0.0
03 02:35 SW 15 16.09 Fair CLR 2 -2 75% -2 75.82 0.0
03 02:15 SW 15 16.09 Fair CLR 2 -2 75% -2 75.84 0.0
03 01:55 SW 13 16.09 Fair CLR 2 -2 6 0.6 75% -1 75.87 0.0
03 01:35 SW 15 16.09 Fair CLR 2 -3 70% -2 75.9 0.0
03 01:15 W 13 16.09 Fair CLR 1 -3 75% -2 75.9 0.0
03 00:55 W 13 16.09 Fair CLR 2 -3 70% -1 75.9 0.0
03 00:36 W 11 16.09 Fair CLR 2 -3 70% -1 75.92 0.0
03 00:15 W 9 16.09 Fair CLR 2 -2 75% -0 75.92 0.0
02 23:55 SW 11 16.09 Fair CLR 3 -3 65% 0 75.92 0.0
02 23:35 SW 13 16.09 Fair CLR 2 -3 70% -1 75.95 0.0
02 23:15 W 13 16.09 Fair CLR 2 -3 70% -1 75.97 0.0
02 22:55 W 11 16.09 Fair CLR 2 -2 75% -1 76 0.0
02 22:36 W 9 16.09 Fair CLR 3 -3 65% 1 76 0.0
02 22:15 W 11 16.09 Fair CLR 3 -3 65% 0 76 0.0
02 21:55 W 9 16.09 Fair CLR 3 -3 65% 1 76 0.0
02 21:35 W 13 16.09 Fair CLR 4 -4 56% 1 76 0.0
02 21:15 W 17 16.09 Fair CLR 4 -6 48% 1 76 0.0
02 20:55 W 15 16.09 Fair CLR 4 -5 52% 1 76 0.0
02 20:35 W 13 16.09 Fair CLR 4 -5 52% 1 76 0.0
02 20:16 W 19 G 28 16.09 Fair CLR 6 -8 36% 3 75.97 0.0
02 19:55 W 20 G 31 16.09 Fair CLR 6 -8 7.2 5.6 36% 3 75.97 0.0
02 19:35 W 19 G 26 16.09 Fair CLR 6 -7 39% 3 76 0.0
02 19:15 W 19 G 33 16.09 Fair CLR 6 -6 42% 3 75.97 0.0
02 18:55 SW 13 G 31 16.09 Fair CLR 6 -5 46% 4 76 0.0
02 18:35 SW 17 G 31 16.09 Fair CLR 6 -4 49% 3 76.02 0.0
02 18:15 SW 17 G 31 16.09 Fair CLR 6 -4 49% 3 76.02 0.0
02 17:56 SW 15 G 31 16.09 Fair CLR 6 -4 49% 3 76.02 0.0
02 17:35 SW 17 G 39 16.09 Fair CLR 6 -5 46% 3 76.02 0.0
02 17:15 W 28 G 39 16.09 Fair CLR 6 -5 46% 2 76.05 0.0
02 16:55 SW 20 G 41 16.09 Fair CLR 6 -5 46% 3 76.05 0.0
02 16:35 SW 17 G 35 16.09 Fair CLR 6 -4 49% 3 76.05 0.0
02 16:15 SW 20 G 37 16.09 Fair CLR 6 -4 49% 3 76.07 0.0
02 15:55 SW 28 G 43 16.09 A Few Clouds FEW080 6 -3 53% 2 76.1 0.0
02 15:36 SW 24 G 43 16.09 Fair CLR 7 -4 46% 4 76.12 0.0
02 15:15 SW 24 G 39 16.09 Fair CLR 7 -4 46% 4 76.12 0.0
02 14:55 SW 28 G 43 16.09 Fair CLR 7 -3 49% 3 76.12 0.0
02 14:35 SW 31 G 41 16.09 Fair CLR 7 -3 49% 3 76.15 0.0
02 14:15 SW 20 G 35 16.09 Fair CLR 6 -3 53% 3 76.15 0.0
02 13:55 SW 30 G 39 16.09 Fair CLR 6 -3 6.6 1 53% 2 76.15 0.0
02 13:35 SW 24 G 37 16.09 Fair CLR 6 -2 57% 2 76.17 0.0
02 13:16 SW 26 16.09 Fair CLR 6 -2 57% 2 76.17 0.0
02 12:55 SW 28 G 35 16.09 Fair CLR 5 -2 61% 1 76.17 0.0
02 12:35 SW 26 16.09 Fair CLR 5 -1 66% 1 76.2 0.0
02 12:15 SW 24 G 37 16.09 Fair CLR 5 -1 66% 1 76.2 0.0
02 11:55 SW 17 16.09 Fair CLR 4 -1 70% 1 76.2 0.0
02 11:35 SW 22 G 31 16.09 Fair CLR 4 -1 70% -0 76.23 0.0
02 11:15 SW 22 16.09 Fair CLR 4 -1 70% -0 76.23 0.0
02 10:56 SW 22 G 28 16.09 Fair CLR 4 -1 70% -0 76.23 0.0
02 10:35 SW 22 16.09 Fair CLR 4 -1 70% -0 76.23 0.0
02 10:15 SW 19 16.09 Fair CLR 4 -1 70% 0 76.25 0.0
02 09:55 Vrbl 9 16.09 Fair CLR 4 -1 70% 2 76.25 0.0
02 09:35 W 17 16.09 Fair CLR 3 -2 70% -1 76.25 0.0
02 09:15 W 13 16.09 Fair CLR 3 -2 70% 0 76.25 0.0
02 08:55 W 9 16.09 Fair CLR 2 -2 75% -0 76.25 0.0
02 08:36 W 13 16.09 Fair CLR 2 -2 75% -1 76.25 0.0
02 08:15 W 13 16.09 Fair CLR 2 -2 75% -1 76.28 0.0
02 07:55 W 15 16.09 Fair CLR 1 -3 1 -1.1 75% -3 76.28 0.0
02 07:35 W 17 16.09 Fair CLR 1 -3 75% -3 76.28 0.0
02 07:15 W 15 16.09 Fair CLR 1 -3 75% -3 76.28 0.0
02 06:55 W 15 16.09 Fair CLR 0 -3 80% -4 76.28 0.0
02 06:35 W 15 16.09 A Few Clouds FEW080 0 -3 80% -4 76.25 0.0
02 06:16 W 11 16.09 Mostly Cloudy BKN080 0 -3 80% -3 76.25 0.0
02 05:55 W 15 16.09 Overcast OVC080 0 -3 80% -4 76.25 0.0
02 05:35 W 11 16.09 Overcast OVC080 0 -4 75% -3 76.25 0.0
02 05:15 W 11 16.09 Overcast OVC080 0 -4 75% -3 76.25 0.0
02 04:55 W 13 16.09 Mostly Cloudy BKN080 0 -4 75% -4 76.23 0.0
02 04:35 W 11 16.09 Fair CLR 0 -4 75% -3 76.23 0.0
02 04:15 W 13 16.09 Fair CLR 0 -4 75% -4 76.23 0.0
02 03:56 W 9 16.09 Fair CLR 0 -4 75% -3 76.23 0.0
02 03:35 W 7 16.09 Fair CLR 0 -4 75% -2 76.23 0.0
02 03:15 W 13 16.09 Fair CLR 0 -4 75% -4 76.23 0.0
02 02:55 W 15 16.09 Fair CLR -1 -4 80% -5 76.23 0.0
02 02:35 NW 11 16.09 Fair CLR -1 -4 80% -4 76.25 0.0
02 02:15 W 13 16.09 Fair CLR -1 -4 80% -5 76.25 0.0
02 01:55 NW 11 16.09 Fair CLR -1 -4 3.5 -1 80% -4 76.25 0.0
02 01:36 NW 9 16.09 Fair CLR -1 -4 80% -4 76.25 0.0
02 01:15 NW 11 16.09 Fair CLR -1 -5 75% -4 76.25 0.0
02 00:55 NW 11 16.09 Fair CLR 0 -5 69% -3 76.25 0.0
02 00:35 NW 13 16.09 Fair CLR 0 -5 69% -4 76.25 0.0
02 00:15 NW 11 16.09 Fair CLR 0 -5 69% -3 76.28 0.0
01 23:55 NW 15 16.09 Fair CLR 0 -5 69% -4 76.28 0.0
01 23:35 NW 15 16.09 Fair CLR 0 -5 69% -4 76.28 0.0
01 23:16 NW 13 16.09 Fair CLR 1 -5 65% -2 76.28 0.0
01 22:55 N 15 16.09 Fair CLR 1 -4 70% -3 76.28 0.0
01 22:35 NW 11 16.09 Fair CLR 1 -4 70% -2 76.28 0.0
01 22:15 N 15 16.09 Fair CLR 1 -4 70% -3 76.28 0.0
01 21:55 N 15 16.09 Fair CLR 1 -4 70% -3 76.28 0.0
01 21:35 N 11 16.09 A Few Clouds FEW075 2 -4 65% -1 76.25 0.0
01 21:15 N 11 16.09 Mostly Cloudy BKN060 BKN075 2 -5 60% -1 76.25 0.0
01 20:56 N 13 16.09 Overcast OVC060 3 -5 56% 0 76.25 0.0
01 20:35 N 15 16.09 Overcast OVC060 3 -5 56% -0 76.23 0.0
01 20:15 N 17 16.09 Overcast OVC060 3 -4 60% -1 76.23 0.0
01 19:55 N 15 16.09 Overcast OVC060 4 -4 6.7 3.5 56% 1 76.2 0.0
01 19:35 N 15 16.09 Overcast OVC060 4 -5 52% 1 76.2 0.0
01 19:15 N 11 16.09 Overcast OVC075 4 -5 52% 2 76.2 0.0
01 18:55 N 17 16.09 Overcast OVC075 4 -5 52% 1 76.2 0.0
01 18:36 N 15 G 28 16.09 Partly Cloudy SCT075 4 -5 52% 1 76.17 0.0
01 18:15 N 19 G 26 16.09 Mostly Cloudy SCT060 BKN075 4 -5 52% 0 76.17 0.0
01 17:55 N 17 16.09 Overcast OVC075 5 -6 45% 2 76.17 0.0
01 17:35 N 17 G 26 16.09 Overcast BKN060 OVC075 5 -7 42% 2 76.15 0.0
01 17:15 N 20 16.09 Overcast BKN060 OVC080 5 -6 45% 1 76.15 0.0
01 16:55 N 20 G 26 16.09 Overcast SCT060 OVC075 6 -7 39% 3 76.12 0.0
01 16:35 N 15 16.09 Overcast OVC060 5 -6 45% 2 76.12 0.0
01 16:16 N 13 16.09 Overcast OVC060 5 -7 42% 2 76.12 0.0
01 15:55 N 11 16.09 Overcast OVC060 5 -7 42% 3 76.12 0.0
01 15:35 N 9 16.09 Overcast BKN060 OVC070 5 -7 42% 3 76.12 0.0
01 15:15 NW 17 16.09 Overcast OVC060 5 -7 42% 2 76.12 0.0
01 14:55 W 13 16.09 Overcast OVC060 4 -6 48% 1 76.12 0.0
01 14:35 Vrbl 7 16.09 Overcast BKN060 OVC070 5 -7 42% 4 76.12 0.0
01 14:15 NE 13 G 28 16.09 Overcast SCT060 BKN070 OVC080 6 -6 42% 4 76.12 0.0
01 13:56 Vrbl 4 16.09 Overcast FEW050 OVC080 5 -5 49% 76.12 0.0
01 13:35 SW 9 16.09 Overcast SCT050 OVC080 4 -2 65% 2 76.12 0.0
01 13:15 Vrbl 9 16.09 Overcast BKN050 BKN060 OVC080 5 -5 49% 3 76.12 0.0
01 12:55 Vrbl 7 16.09 Overcast OVC080 4 -5 52% 2 76.12 0.0
01 12:35 Vrbl 9 16.09 Overcast OVC080 5 -4 53% 3 76.12 0.0
01 12:15 N 15 16.09 Overcast OVC080 6 -3 53% 3 76.12 0.0
01 11:55 N 15 16.09 Overcast OVC070 4 -4 56% 1 76.15 0.0
01 11:36 N 13 16.09 Overcast OVC070 4 -4 56% 1 76.15 0.0
01 11:15 NW 13 16.09 Overcast OVC070 3 -4 60% 0 76.15 0.0
01 10:55 NW 11 16.09 Overcast OVC070 3 -4 60% 0 76.15 0.0
01 10:35 NW 11 16.09 Overcast FEW046 OVC070 3 -2 70% 0 76.15 0.0
01 10:15 NW 13 16.09 Overcast BKN046 OVC070 3 -2 70% 0 76.15 0.0
01 09:55 NW 13 16.09 Overcast FEW044 OVC070 2 -2 75% -1 76.15 0.0
01 09:35 NW 13 16.09 Overcast OVC070 2 -1 81% -1 76.15 0.0
01 09:16 NW 15 16.09 Overcast OVC070 2 -1 81% -2 76.15 0.0
01 08:55 NW 13 16.09 Overcast OVC060 1 -1 87% -2 76.12 0.0
01 08:35 NW 11 16.09 Overcast OVC060 1 -1 87% -2 76.12 0.0
01 08:15 NW 7 16.09 Overcast OVC060 1 -2 81% -1 76.12 0.0
01 07:55 NW 11 16.09 Overcast OVC060 0 -2 0.6 -0.9 87% -3 76.1 0.0
01 07:15 NW 13 16.09 Overcast OVC060 0 -2 87% -4 76.1 0.0
01 06:56 NW 9 16.09 Overcast OVC060 0 -2 87% -3 76.07 0.0
01 06:35 NW 11 16.09 Mostly Cloudy BKN060 -1 -2 93% -4 76.07 0.0
01 06:15 NW 11 16.09 Fair CLR -1 -2 93% -4 76.07 0.0
01 05:55 NW 13 16.09 Fair CLR -1 -2 93% -5 76.07 0.0
01 05:35 NW 15 16.09 A Few Clouds FEW090 -1 -2 93% -5 76.07 0.0
01 05:15 NW 15 16.09 Partly Cloudy FEW055 SCT090 0 -2 87% -4 76.07 0.0
01 04:55 NW 15 16.09 Overcast SCT055 OVC090 0 -2 87% -4 76.07 0.0
01 04:36 NW 17 16.09 Overcast BKN055 OVC090 0 -2 87% -4 76.07 0.0
01 04:15 NW 15 16.09 Overcast OVC055 0 -1 93% -4 76.07 0.0
01 03:55 NW 11 16.09 Overcast OVC055 1 -1 87% -2 76.07 0.0
Date Time (edt) Wind (kph) Vis. (km) Weather Sky Cond. Air Dwpt Max. Min. Relative Humidity Wind Chill (°C) Heat Index (°C) altimeter (cm) sea level (mb) 1 hr 3 hr 6 hr
6 hour
Temperature (ºC) Pressure Precipitation (cm)